This is the latest recevied weather packets stored in our database for station/object OK1KKY-18. If no packets are shown the sender has not sent any weather packets the latest 10 day(s).
| Time | Temp. | Humidity | Pressure | Rain* | Wind** | Luminosity | Snow |
|---|---|---|---|---|---|---|---|
| 1777988160 | 23.33° C | 30% | 1007.3 hPa | - | - | - | - |
| 1777987560 | 24.44° C | 30% | 1007.3 hPa | - | - | - | - |
| 1777986960 | 23.89° C | 31% | 1007.4 hPa | - | - | - | - |
| 1777986360 | 23.33° C | 34% | 1007.5 hPa | - | - | - | - |
| 1777985760 | 23.89° C | 33% | 1007.6 hPa | - | - | - | - |
| 1777985160 | 23.89° C | 32% | 1007.7 hPa | - | - | - | - |
| 1777984560 | 23.33° C | 33% | 1007.8 hPa | - | - | - | - |
| 1777983960 | 22.78° C | 35% | 1008 hPa | - | - | - | - |
| 1777983360 | 22.22° C | 33% | 1007.9 hPa | - | - | - | - |
| 1777982760 | 22.78° C | 34% | 1007.9 hPa | - | - | - | - |
| 1777982162 | 22.78° C | 34% | 1007.8 hPa | - | - | - | - |
| 1777981562 | 23.33° C | 34% | 1007.9 hPa | - | - | - | - |
| 1777980961 | 22.22° C | 36% | 1007.9 hPa | - | - | - | - |
| 1777980363 | 22.78° C | 32% | 1008 hPa | - | - | - | - |
| 1777979763 | 22.22° C | 34% | 1008.1 hPa | - | - | - | - |
| 1777979164 | 22.22° C | 34% | 1008.2 hPa | - | - | - | - |
| 1777978560 | 21.67° C | 36% | 1008.3 hPa | - | - | - | - |
| 1777977960 | 21.67° C | 36% | 1008.5 hPa | - | - | - | - |
| 1777977360 | 21.67° C | 35% | 1008.6 hPa | - | - | - | - |
| 1777976760 | 21.11° C | 37% | 1008.7 hPa | - | - | - | - |
| 1777976160 | 21.67° C | 37% | 1008.7 hPa | - | - | - | - |
| 1777975560 | 21.11° C | 37% | 1008.6 hPa | - | - | - | - |
| 1777974960 | 20.56° C | 38% | 1008.7 hPa | - | - | - | - |
| 1777974360 | 20.56° C | 39% | 1008.7 hPa | - | - | - | - |
| 1777973760 | 20.56° C | 40% | 1008.8 hPa | - | - | - | - |
* Rain since midnight (hover to see other rain measurements)
** Current wind speed in m/s (hover to see current wind gust speed)